Дата Пункты Температура Давл., мм. Влажн., % Ветер Погодные явления
Воздуха Воды Направл. Скорость
03.11.15 10:00 Одесса 12.0 11.0 765 58 Пн-З 2 11 часов
03.11.15 07:00 Одесса 7.0 11.0 765 69 З 2 08 часов
03.11.15 04:00 Одесса 7.0 11.0 765 65 З 3 05 часов
03.11.15 01:00 Одесса 8.0 11.0 766 55 З 2 02 часа
02.11.15 10:00 Одесса 9.0 11.0 766 58 З 2 23 часа
02.11.15 07:00 Одесса 11.0 11.0 766 55 З 3 20 часов
02.11.15 04:00 Одесса 12.0 11.0 767 45 З 2 17 часов
02.11.15 01:00 Одесса 14.0 11.0 768 39 З 2 14 часов
02.11.15 10:00 Одесса 13.0 11.0 769 37 З 2 11 часов
02.11.15 07:00 Одесса 6.0 11.0 771 62 З 2 08 часов
02.11.15 04:00 Одесса 5.0 12.0 771 72 З 4 05 часов
02.11.15 01:00 Одесса 5.0 12.0 773 80 З 4 02 часа
01.11.15 10:00 Одесса 5.0 12.0 774 75 З 2 23 часа
01.11.15 07:00 Одесса 4.0 12.0 775 78 Пд-З 2 20 часов
01.11.15 04:00 Одесса 5.0 12.0 776 69 Пн 0 17 часов
01.11.15 01:00 Одесса 8.0 12.0 777 58 С 1 14 часов
01.11.15 10:00 Одесса 7.0 12.0 779 68 Пн 1 11 часов
01.11.15 07:00 Одесса 2.0 12.0 779 82 Пн-З 1 08 часов
01.11.15 04:00 Одесса 4.0 12.0 779 88 Пн-С 4 05 часов
01.11.15 01:00 Одесса 5.0 12.0 780 81 Пн 4 02 часа
Количество строк
361 362 363 364 365 366 367 368 369 370
Page 361 of 511